Time;durP1;ratioP1;P1;durP2;ratioP2;P2;SDS_P1;SDS_P2;PMS_P1;PMS_P2;Temp;Humidity;BMP_temperature;BMP_pressure;BME280_temperature;BME280_humidity;BME280_pressure;Samples;Min_cycle;Max_cycle;Signal;HPM_P1;HPM_P2
2021/12/11 00:02:57;;;;;;;30.80;18.43;;;3.10;99.90;;;;;;6274637;28;20473;-67
2021/12/11 00:06:06;;;;;;;30.67;17.70;;;3.20;99.90;;;;;;6276365;28;20490;-67
2021/12/11 00:09:13;;;;;;;35.00;22.37;;;3.20;99.90;;;;;;6275807;28;20810;-67
2021/12/11 00:12:21;;;;;;;36.00;21.33;;;3.20;99.90;;;;;;6271038;28;20852;-67
2021/12/11 00:15:27;;;;;;;42.33;24.70;;;3.10;99.90;;;;;;6273797;28;20789;-67
2021/12/11 00:18:31;;;;;;;47.63;24.40;;;3.10;99.90;;;;;;6275401;28;20481;-66
2021/12/11 00:21:36;;;;;;;43.70;24.60;;;3.10;99.90;;;;;;6275299;28;20466;-66
2021/12/11 00:24:40;;;;;;;46.13;25.47;;;3.10;99.90;;;;;;6276184;28;20478;-66
2021/12/11 00:27:47;;;;;;;47.30;27.13;;;3.10;99.90;;;;;;6281043;28;20466;-67
2021/12/11 00:30:50;;;;;;;52.77;29.20;;;3.10;99.90;;;;;;6284870;28;20801;-67
2021/12/11 00:33:54;;;;;;;50.77;29.53;;;3.00;99.90;;;;;;6283610;28;20985;-68
2021/12/11 00:37:03;;;;;;;50.60;26.70;;;3.00;99.90;;;;;;6282379;28;20489;-67
2021/12/11 00:40:13;;;;;;;46.87;27.30;;;2.90;99.90;;;;;;6285143;28;20471;-65
2021/12/11 00:43:30;;;;;;;51.07;25.10;;;2.80;99.90;;;;;;6281115;28;20467;-66
2021/12/11 00:46:34;;;;;;;47.83;26.83;;;2.90;99.90;;;;;;6256435;28;20487;-67
2021/12/11 00:49:46;;;;;;;51.03;27.40;;;2.80;99.90;;;;;;6260116;28;20976;-65
2021/12/11 00:52:55;;;;;;;46.20;26.20;;;2.70;99.90;;;;;;6259680;28;20482;-67
2021/12/11 00:56:00;;;;;;;41.80;23.97;;;2.80;99.90;;;;;;6259365;28;20490;-64
2021/12/11 00:59:09;;;;;;;41.23;23.80;;;2.80;99.90;;;;;;6279523;28;20474;-64
2021/12/11 01:02:13;;;;;;;39.43;22.47;;;2.70;99.90;;;;;;6281060;28;20485;-64
2021/12/11 01:05:17;;;;;;;43.33;24.77;;;2.70;99.90;;;;;;6280336;28;20476;-64
2021/12/11 01:08:27;;;;;;;43.97;24.13;;;2.70;99.90;;;;;;6278939;28;20466;-64
2021/12/11 01:11:33;;;;;;;34.00;22.37;;;2.70;99.90;;;;;;6278009;28;20470;-64
2021/12/11 01:14:50;;;;;;;39.90;23.43;;;2.80;99.90;;;;;;6278596;28;20973;-64
2021/12/11 01:18:04;;;;;;;40.70;23.93;;;2.80;99.90;;;;;;6249558;28;20798;-64
2021/12/11 01:21:31;;;;;;;41.27;23.27;;;2.90;99.90;;;;;;6266940;28;20466;-64
2021/12/11 01:24:43;;;;;;;40.20;24.57;;;2.90;99.90;;;;;;6278455;28;20462;-64
2021/12/11 01:27:49;;;;;;;38.03;23.27;;;2.90;99.90;;;;;;6277906;28;20474;-64
2021/12/11 01:30:54;;;;;;;43.87;24.03;;;2.80;99.90;;;;;;6274943;28;20478;-64
2021/12/11 01:33:58;;;;;;;38.23;23.93;;;2.80;99.90;;;;;;6278082;28;20474;-64
2021/12/11 01:37:03;;;;;;;43.40;24.00;;;2.80;99.90;;;;;;6277337;28;20477;-64
2021/12/11 01:40:11;;;;;;;46.77;24.40;;;2.90;99.90;;;;;;6277466;28;20837;-63
2021/12/11 01:43:15;;;;;;;38.07;22.77;;;2.90;99.90;;;;;;6277233;28;20470;-63
2021/12/11 01:46:22;;;;;;;43.03;22.50;;;2.70;99.90;;;;;;6275511;28;20808;-63
2021/12/11 01:49:25;;;;;;;34.73;22.00;;;2.60;99.90;;;;;;6277489;28;20561;-63
2021/12/11 01:52:36;;;;;;;48.20;29.20;;;2.60;99.90;;;;;;6276474;28;20482;-63
2021/12/11 01:55:42;;;;;;;45.90;24.43;;;2.60;99.90;;;;;;6277381;28;20981;-64
2021/12/11 01:58:50;;;;;;;46.33;25.57;;;2.50;99.90;;;;;;6277760;28;20481;-63
2021/12/11 02:02:01;;;;;;;37.97;22.17;;;2.50;99.90;;;;;;6277465;28;20849;-63
2021/12/11 02:05:08;;;;;;;41.57;21.80;;;2.40;99.90;;;;;;6278380;28;20519;-63
2021/12/11 02:08:14;;;;;;;38.90;23.50;;;2.40;99.90;;;;;;6277734;28;20493;-63
2021/12/11 02:11:20;;;;;;;37.13;22.63;;;2.40;99.90;;;;;;6277711;28;20474;-63
2021/12/11 02:14:32;;;;;;;34.67;19.10;;;2.40;99.90;;;;;;6277340;28;20473;-64
2021/12/11 02:17:41;;;;;;;31.73;19.50;;;2.30;99.90;;;;;;6277136;28;20543;-64
2021/12/11 02:20:51;;;;;;;37.70;20.53;;;2.30;99.90;;;;;;6278204;28;20496;-65
2021/12/11 02:23:58;;;;;;;43.00;21.57;;;2.30;99.90;;;;;;6286550;28;20470;-66
2021/12/11 02:27:08;;;;;;;35.77;19.87;;;2.30;99.90;;;;;;6279192;28;20474;-67
2021/12/11 02:30:20;;;;;;;32.37;18.73;;;2.30;99.90;;;;;;6282933;28;20433;-68
2021/12/11 02:33:26;;;;;;;35.47;20.40;;;2.30;99.90;;;;;;6278410;28;20462;-68
2021/12/11 02:36:33;;;;;;;29.60;19.57;;;2.40;99.90;;;;;;6278156;28;20470;-67
2021/12/11 02:39:43;;;;;;;35.90;18.90;;;2.40;99.90;;;;;;6277881;28;20474;-68
2021/12/11 02:42:54;;;;;;;33.30;19.60;;;2.50;99.90;;;;;;6276882;28;20481;-64
2021/12/11 02:46:02;;;;;;;31.63;18.90;;;2.60;99.90;;;;;;6276077;28;20474;-64
2021/12/11 02:49:09;;;;;;;32.03;20.40;;;2.50;99.90;;;;;;6259830;28;20471;-68
2021/12/11 02:52:17;;;;;;;26.93;18.60;;;2.50;99.90;;;;;;6251547;28;20475;-68
2021/12/11 02:55:28;;;;;;;35.03;19.87;;;2.50;99.90;;;;;;6251065;28;20478;-64
2021/12/11 02:58:35;;;;;;;31.07;18.30;;;2.50;99.90;;;;;;6251342;28;20473;-64
2021/12/11 03:01:45;;;;;;;34.70;20.73;;;2.60;99.90;;;;;;6251200;28;20810;-64
2021/12/11 03:04:52;;;;;;;31.70;20.10;;;2.60;99.90;;;;;;6250831;28;20468;-65
2021/12/11 03:08:00;;;;;;;28.23;18.03;;;2.50;99.90;;;;;;6256060;28;20477;-65
2021/12/11 03:11:08;;;;;;;34.17;21.10;;;2.60;99.90;;;;;;6274959;28;20473;-64
2021/12/11 03:14:14;;;;;;;33.07;19.77;;;2.60;99.90;;;;;;6275014;28;20969;-64
2021/12/11 03:17:21;;;;;;;25.43;18.80;;;2.50;99.90;;;;;;6273779;28;20991;-66
2021/12/11 03:20:25;;;;;;;31.23;17.73;;;2.50;99.90;;;;;;6274072;28;20481;-68
2021/12/11 03:23:28;;;;;;;31.30;19.07;;;2.40;99.90;;;;;;6273569;28;20985;-64
2021/12/11 03:26:33;;;;;;;28.33;18.20;;;2.50;99.90;;;;;;6264175;28;20478;-66
2021/12/11 03:29:36;;;;;;;26.77;18.20;;;2.50;99.90;;;;;;6273447;28;20531;-65
2021/12/11 03:32:40;;;;;;;35.00;19.43;;;2.60;99.90;;;;;;6274970;28;20474;-68
2021/12/11 03:35:45;;;;;;;32.20;19.27;;;2.60;99.90;;;;;;6275176;28;20482;-62
2021/12/11 03:38:51;;;;;;;31.20;19.40;;;2.60;99.90;;;;;;6274969;28;20474;-65
2021/12/11 03:41:58;;;;;;;32.17;18.97;;;2.60;99.90;;;;;;6274199;28;20485;-66
2021/12/11 03:45:03;;;;;;;28.57;19.53;;;2.60;99.90;;;;;;6272375;28;20461;-66
2021/12/11 03:48:10;;;;;;;27.53;18.90;;;2.60;99.90;;;;;;6274330;28;20477;-65
2021/12/11 03:51:16;;;;;;;30.03;20.87;;;2.50;99.90;;;;;;6274593;28;20458;-67
2021/12/11 03:54:25;;;;;;;33.77;20.30;;;2.50;99.90;;;;;;6272074;28;20438;-64
2021/12/11 03:57:30;;;;;;;31.90;20.67;;;2.40;99.90;;;;;;6274195;28;20840;-65
2021/12/11 04:00:37;;;;;;;40.60;23.57;;;2.40;99.90;;;;;;6274848;28;20459;-66
2021/12/11 04:03:45;;;;;;;35.30;23.10;;;2.40;99.90;;;;;;6275476;28;20470;-67
2021/12/11 04:06:49;;;;;;;34.63;21.17;;;2.40;99.90;;;;;;6275303;28;20466;-64
2021/12/11 04:09:52;;;;;;;38.07;22.40;;;2.40;99.90;;;;;;6268946;28;20497;-67
2021/12/11 04:12:58;;;;;;;30.90;21.17;;;2.40;99.90;;;;;;6250263;28;20467;-66
2021/12/11 04:16:02;;;;;;;35.43;19.77;;;2.40;99.90;;;;;;6249596;28;20477;-66
2021/12/11 04:19:08;;;;;;;37.50;22.00;;;2.30;99.90;;;;;;6249726;28;20471;-65
2021/12/11 04:22:12;;;;;;;35.10;20.60;;;2.30;99.90;;;;;;6250129;28;20471;-65
2021/12/11 04:25:17;;;;;;;37.43;20.70;;;2.20;99.90;;;;;;6253428;28;20485;-63
2021/12/11 04:28:23;;;;;;;33.67;20.80;;;2.10;99.90;;;;;;6250021;28;20482;-68
2021/12/11 04:31:29;;;;;;;33.80;20.77;;;2.10;99.90;;;;;;6254944;28;20479;-66
2021/12/11 04:34:33;;;;;;;27.83;20.37;;;2.00;99.90;;;;;;6254415;28;20479;-65
2021/12/11 04:37:38;;;;;;;34.90;21.47;;;2.00;99.90;;;;;;6254136;28;20478;-65
2021/12/11 04:40:47;;;;;;;30.80;20.70;;;1.90;99.90;;;;;;6254193;28;20873;-64
2021/12/11 04:43:54;;;;;;;30.93;20.83;;;1.90;99.90;;;;;;6266789;28;20470;-65
2021/12/11 04:46:57;;;;;;;31.87;18.77;;;1.90;99.90;;;;;;6279063;28;20840;-68
2021/12/11 04:50:06;;;;;;;30.50;19.67;;;1.90;99.90;;;;;;6279170;28;20811;-69
2021/12/11 04:53:25;;;;;;;38.07;21.90;;;1.90;99.90;;;;;;6278999;28;20528;-66
2021/12/11 05:00:07;;;;;;;36.77;20.43;;;1.90;99.90;;;;;;6278710;28;20470;-68
2021/12/11 05:03:32;;;;;;;33.80;20.70;;;1.90;99.90;;;;;;6278731;28;20741;-66
2021/12/11 05:06:46;;;;;;;38.47;21.43;;;1.80;99.90;;;;;;6278525;28;20528;-64
2021/12/11 05:09:56;;;;;;;40.93;23.80;;;1.80;99.90;;;;;;6278166;28;20493;-66
2021/12/11 05:13:00;;;;;;;36.17;21.87;;;1.80;99.90;;;;;;6278598;28;20821;-68
2021/12/11 05:16:07;;;;;;;37.07;21.17;;;1.80;99.90;;;;;;6278840;28;20477;-64
2021/12/11 05:19:11;;;;;;;30.20;19.83;;;1.80;99.90;;;;;;6278662;28;20475;-65
2021/12/11 05:22:15;;;;;;;38.47;21.87;;;1.90;99.90;;;;;;6278423;28;20466;-66
2021/12/11 05:25:19;;;;;;;34.90;21.50;;;1.90;99.90;;;;;;6278097;28;20811;-65
2021/12/11 05:28:23;;;;;;;39.83;22.60;;;2.00;99.90;;;;;;6278263;28;20485;-69
2021/12/11 05:31:27;;;;;;;36.30;21.57;;;2.00;99.90;;;;;;6277897;28;20994;-67
2021/12/11 05:34:31;;;;;;;37.17;20.63;;;2.00;99.90;;;;;;6269373;28;20486;-63
2021/12/11 05:37:35;;;;;;;37.60;22.27;;;2.10;99.90;;;;;;6278465;28;20482;-63
2021/12/11 05:40:40;;;;;;;36.07;21.90;;;2.10;99.90;;;;;;6277929;28;21016;-65
2021/12/11 05:43:44;;;;;;;40.80;21.60;;;2.20;99.90;;;;;;6277998;28;20481;-65
2021/12/11 05:46:49;;;;;;;35.40;22.77;;;2.20;99.90;;;;;;6277708;28;20482;-64
2021/12/11 05:49:52;;;;;;;36.20;21.43;;;2.20;99.90;;;;;;6277168;28;20545;-64
2021/12/11 05:52:56;;;;;;;37.63;22.93;;;2.30;99.90;;;;;;6278062;28;20800;-64
2021/12/11 05:56:03;;;;;;;38.87;21.43;;;2.30;99.90;;;;;;6277473;28;20977;-67
2021/12/11 05:59:08;;;;;;;38.47;22.00;;;2.30;99.90;;;;;;6277323;28;20474;-68
2021/12/11 06:02:17;;;;;;;31.83;20.50;;;2.40;99.90;;;;;;6277719;28;20470;-66
2021/12/11 06:05:20;;;;;;;35.40;19.27;;;2.30;99.90;;;;;;6277663;28;20485;-67
2021/12/11 06:08:24;;;;;;;31.33;20.00;;;2.20;99.90;;;;;;6276928;28;20466;-66
2021/12/11 06:11:27;;;;;;;29.77;19.53;;;2.20;99.90;;;;;;6277641;28;20473;-67
2021/12/11 06:14:31;;;;;;;36.73;19.90;;;2.20;99.90;;;;;;6276917;28;20975;-63
2021/12/11 06:17:37;;;;;;;31.03;19.23;;;2.20;99.90;;;;;;6276787;28;20820;-65
2021/12/11 06:20:40;;;;;;;35.50;19.70;;;2.20;99.90;;;;;;6276453;28;20879;-68
2021/12/11 06:23:45;;;;;;;40.77;20.60;;;2.20;99.90;;;;;;6277074;28;20485;-68
2021/12/11 06:26:48;;;;;;;34.23;17.77;;;2.20;99.90;;;;;;6276574;28;20484;-67
2021/12/11 06:29:52;;;;;;;33.97;17.33;;;2.20;99.90;;;;;;6276373;28;20482;-63
2021/12/11 06:32:57;;;;;;;31.10;18.80;;;2.20;99.90;;;;;;6276987;28;20523;-66
2021/12/11 06:36:02;;;;;;;36.73;18.67;;;2.20;99.90;;;;;;6276444;28;20473;-65
2021/12/11 06:39:11;;;;;;;30.70;18.37;;;2.10;99.90;;;;;;6276288;28;20451;-63
2021/12/11 06:42:14;;;;;;;29.30;18.70;;;2.10;99.90;;;;;;6275981;28;20470;-67
2021/12/11 06:45:17;;;;;;;25.67;16.90;;;2.20;99.90;;;;;;6275764;28;20461;-64
2021/12/11 06:48:21;;;;;;;26.60;17.13;;;2.20;99.90;;;;;;6275781;28;20453;-64
2021/12/11 06:51:25;;;;;;;30.57;18.37;;;2.20;99.90;;;;;;6275600;28;20478;-67
2021/12/11 06:54:28;;;;;;;33.10;17.53;;;2.20;99.90;;;;;;6275986;28;21063;-65
2021/12/11 06:57:31;;;;;;;29.87;18.30;;;2.30;99.90;;;;;;6275805;28;20477;-65
2021/12/11 07:00:35;;;;;;;28.37;17.80;;;2.30;99.90;;;;;;6276126;28;20466;-65
2021/12/11 07:03:40;;;;;;;29.27;18.53;;;2.30;99.90;;;;;;6275677;28;20462;-66
2021/12/11 07:06:47;;;;;;;28.37;17.43;;;2.20;99.90;;;;;;6275391;28;20969;-66
2021/12/11 07:09:51;;;;;;;26.80;15.87;;;2.20;99.90;;;;;;6270434;28;20551;-65
2021/12/11 07:12:54;;;;;;;30.00;18.10;;;2.30;99.90;;;;;;6250673;28;20485;-65
2021/12/11 07:15:59;;;;;;;28.60;16.00;;;2.30;99.90;;;;;;6250960;28;20471;-66
2021/12/11 07:19:06;;;;;;;22.60;16.30;;;2.30;99.90;;;;;;6250663;28;20904;-65
2021/12/11 07:22:09;;;;;;;24.80;16.83;;;2.20;99.90;;;;;;6250740;28;20491;-66
2021/12/11 07:25:18;;;;;;;28.57;18.17;;;2.00;99.90;;;;;;6250663;28;20560;-66
2021/12/11 07:28:24;;;;;;;24.23;16.20;;;2.10;99.90;;;;;;6251001;28;20475;-66
2021/12/11 07:31:30;;;;;;;26.30;17.57;;;2.10;99.90;;;;;;6250993;28;20479;-66
2021/12/11 07:34:35;;;;;;;23.07;15.40;;;2.10;99.90;;;;;;6252060;28;20986;-66
2021/12/11 07:37:40;;;;;;;30.70;19.07;;;2.20;99.90;;;;;;6251135;28;20485;-66
2021/12/11 07:40:46;;;;;;;27.30;17.00;;;2.20;99.90;;;;;;6242055;28;20804;-66
2021/12/11 07:43:52;;;;;;;25.97;16.80;;;2.20;99.90;;;;;;6263965;28;20488;-66
2021/12/11 07:46:59;;;;;;;29.50;18.03;;;2.10;99.90;;;;;;6277948;28;20486;-66
2021/12/11 07:50:06;;;;;;;30.10;17.93;;;1.70;99.90;;;;;;6276732;28;20988;-66
2021/12/11 07:53:09;;;;;;;31.17;20.43;;;1.60;99.90;;;;;;6276266;28;20985;-65
2021/12/11 07:56:17;;;;;;;32.17;19.40;;;1.60;99.90;;;;;;6275339;28;20485;-65
2021/12/11 07:59:20;;;;;;;33.03;19.00;;;1.60;99.90;;;;;;6279804;28;20462;-64
2021/12/11 08:02:24;;;;;;;24.60;16.37;;;1.50;99.90;;;;;;6281022;28;20480;-65
2021/12/11 08:05:31;;;;;;;33.80;19.00;;;1.60;99.90;;;;;;6280563;28;20507;-66
2021/12/11 08:08:34;;;;;;;26.77;18.50;;;1.60;99.90;;;;;;6280683;28;20477;-66
2021/12/11 08:11:38;;;;;;;37.43;20.43;;;1.80;99.90;;;;;;6280035;28;20474;-67
2021/12/11 08:14:42;;;;;;;32.40;18.07;;;1.80;99.90;;;;;;6279937;28;20559;-63
2021/12/11 08:17:54;;;;;;;31.03;18.80;;;1.90;99.90;;;;;;6279800;28;20489;-63
2021/12/11 08:20:59;;;;;;;38.37;22.37;;;2.00;99.90;;;;;;6279688;28;20466;-63
2021/12/11 08:24:05;;;;;;;31.33;18.57;;;2.10;99.90;;;;;;6280503;28;20469;-64
2021/12/11 08:27:14;;;;;;;29.73;20.97;;;2.30;99.90;;;;;;6279968;28;20473;-66
2021/12/11 08:30:18;;;;;;;28.03;17.60;;;2.30;99.90;;;;;;6280473;28;20477;-66
2021/12/11 08:33:23;;;;;;;34.67;20.20;;;2.50;99.90;;;;;;6279645;28;20454;-68
2021/12/11 08:36:28;;;;;;;36.50;21.10;;;2.50;99.90;;;;;;6280420;28;20932;-66
2021/12/11 08:39:32;;;;;;;36.33;19.43;;;2.60;99.90;;;;;;6278993;28;20469;-66
2021/12/11 08:42:38;;;;;;;34.97;18.77;;;2.60;99.90;;;;;;6278982;28;20899;-67
2021/12/11 08:45:47;;;;;;;34.87;20.27;;;2.60;99.90;;;;;;6279613;28;20485;-64
2021/12/11 08:48:56;;;;;;;31.70;18.67;;;2.70;99.90;;;;;;6278786;28;20828;-65
2021/12/11 08:52:06;;;;;;;33.77;20.60;;;2.80;99.90;;;;;;6279214;28;20466;-65
2021/12/11 08:55:14;;;;;;;34.03;17.77;;;2.90;99.90;;;;;;6279212;28;20805;-65
2021/12/11 08:58:19;;;;;;;29.10;17.33;;;2.90;99.90;;;;;;6278869;28;20466;-65
2021/12/11 09:01:27;;;;;;;27.53;16.30;;;3.00;99.90;;;;;;6279026;28;20466;-65
2021/12/11 09:04:37;;;;;;;31.27;19.00;;;3.00;99.90;;;;;;6278540;28;20478;-65
2021/12/11 09:07:46;;;;;;;35.73;18.20;;;3.10;99.90;;;;;;6280927;28;20474;-65
2021/12/11 09:10:55;;;;;;;31.13;17.80;;;3.10;99.90;;;;;;6263993;28;20966;-64
2021/12/11 09:14:03;;;;;;;29.43;16.83;;;3.10;99.90;;;;;;6254041;28;20470;-64
2021/12/11 09:17:11;;;;;;;28.77;16.73;;;3.20;99.90;;;;;;6254019;28;20978;-64
2021/12/11 09:20:21;;;;;;;31.83;17.80;;;3.20;99.90;;;;;;6253533;28;20478;-64
2021/12/11 09:23:28;;;;;;;31.67;18.80;;;3.30;99.90;;;;;;6253112;28;20471;-65
2021/12/11 09:26:35;;;;;;;31.60;20.33;;;3.40;99.90;;;;;;6253843;28;20475;-64
2021/12/11 09:29:43;;;;;;;29.40;15.80;;;3.40;99.90;;;;;;6252876;28;20471;-64
2021/12/11 09:32:50;;;;;;;29.50;17.40;;;3.40;99.90;;;;;;6275206;28;20470;-65
2021/12/11 09:35:57;;;;;;;26.70;15.90;;;3.40;99.90;;;;;;6277997;28;20481;-65
2021/12/11 09:39:15;;;;;;;32.77;18.23;;;3.40;99.90;;;;;;6278526;28;20982;-65
2021/12/11 09:42:18;;;;;;;30.57;19.10;;;3.40;99.90;;;;;;6277482;28;20485;-64
2021/12/11 09:45:26;;;;;;;30.33;18.93;;;3.40;99.90;;;;;;6277678;28;20438;-64
2021/12/11 09:48:29;;;;;;;31.07;20.20;;;3.20;99.90;;;;;;6275229;28;20469;-66
2021/12/11 09:51:39;;;;;;;34.40;21.50;;;3.20;99.90;;;;;;6270833;28;20475;-66
2021/12/11 09:54:45;;;;;;;33.63;18.43;;;3.20;99.90;;;;;;6276154;28;20462;-66
2021/12/11 09:57:52;;;;;;;31.67;19.37;;;3.20;99.90;;;;;;6275837;28;20871;-66
2021/12/11 10:01:01;;;;;;;33.17;20.23;;;3.20;99.90;;;;;;6275737;28;20477;-66
2021/12/11 10:04:10;;;;;;;35.37;19.30;;;3.30;99.90;;;;;;6274952;28;20474;-66
2021/12/11 10:51:17;;;;;;;29.57;19.07;;;3.50;99.90;;;;;;6215393;28;20495;-66
2021/12/11 11:52:19;;;;;;;21.70;13.23;;;4.50;99.90;;;;;;6165196;28;20519;-67
2021/12/11 11:55:26;;;;;;;21.40;14.20;;;4.50;99.90;;;;;;6297643;28;20609;-67
2021/12/11 11:58:32;;;;;;;20.30;13.90;;;4.50;99.90;;;;;;6294221;28;20458;-67
2021/12/11 12:01:38;;;;;;;23.97;14.33;;;4.40;99.90;;;;;;6293617;28;20470;-67
2021/12/11 12:04:42;;;;;;;21.77;13.60;;;4.30;99.90;;;;;;6284237;28;20795;-68
2021/12/11 12:07:46;;;;;;;25.60;16.20;;;4.20;99.90;;;;;;6289377;28;20466;-67
2021/12/11 12:10:53;;;;;;;20.50;13.30;;;4.20;99.90;;;;;;6289172;28;20492;-68
2021/12/11 12:13:56;;;;;;;20.13;13.70;;;4.20;99.90;;;;;;6294350;28;20975;-64
2021/12/11 12:17:06;;;;;;;21.80;13.07;;;4.30;99.90;;;;;;6302182;28;20472;-64
2021/12/11 12:20:11;;;;;;;21.63;14.20;;;4.40;99.90;;;;;;6301638;28;20473;-65
2021/12/11 12:23:18;;;;;;;20.93;12.70;;;4.30;99.90;;;;;;6299226;28;20469;-65
2021/12/11 12:26:25;;;;;;;18.60;13.00;;;4.20;99.90;;;;;;6299561;28;20500;-64
2021/12/11 12:29:29;;;;;;;22.60;13.60;;;4.20;99.90;;;;;;6283183;28;20474;-64
2021/12/11 12:32:36;;;;;;;17.47;12.77;;;4.30;99.90;;;;;;6274893;28;20489;-65
2021/12/11 12:35:40;;;;;;;20.40;13.63;;;4.40;99.90;;;;;;6295857;28;20496;-64
2021/12/11 12:38:46;;;;;;;19.73;12.97;;;4.40;99.90;;;;;;6299024;28;20588;-66
2021/12/11 12:42:03;;;;;;;17.47;12.60;;;4.40;99.90;;;;;;6300677;28;20481;-65
2021/12/11 12:45:14;;;;;;;19.40;12.40;;;4.50;99.90;;;;;;6301852;28;20478;-65
2021/12/11 12:48:20;;;;;;;17.87;11.10;;;4.60;99.90;;;;;;6304938;28;20738;-64
2021/12/11 12:51:24;;;;;;;16.07;9.80;;;4.60;99.90;;;;;;6304655;28;20465;-65
2021/12/11 12:54:29;;;;;;;14.63;10.93;;;4.60;99.90;;;;;;6305798;28;20461;-67
2021/12/11 12:57:37;;;;;;;18.83;11.33;;;4.60;99.80;;;;;;6297098;28;20469;-65
2021/12/11 13:00:42;;;;;;;15.13;10.60;;;4.70;99.90;;;;;;6303518;28;20472;-64
2021/12/11 13:03:47;;;;;;;15.40;10.00;;;4.60;99.40;;;;;;6308308;28;20460;-67
2021/12/11 13:06:55;;;;;;;15.67;11.17;;;4.60;99.40;;;;;;6306174;28;20477;-66
2021/12/11 13:10:06;;;;;;;15.30;9.93;;;4.50;99.50;;;;;;6301690;28;20493;-64
2021/12/11 13:13:11;;;;;;;15.27;11.20;;;4.60;99.30;;;;;;6302647;28;20515;-64
2021/12/11 13:16:18;;;;;;;14.13;9.43;;;4.50;99.60;;;;;;6306287;28;20479;-67
2021/12/11 13:19:31;;;;;;;16.00;10.70;;;4.60;99.50;;;;;;6306788;28;20461;-66
2021/12/11 13:22:37;;;;;;;12.70;10.80;;;4.50;99.30;;;;;;6304225;28;20807;-66
2021/12/11 13:25:47;;;;;;;16.23;11.10;;;4.40;99.30;;;;;;6305153;28;20498;-64
2021/12/11 13:28:55;;;;;;;13.77;10.17;;;4.30;99.40;;;;;;6303411;28;20473;-65
2021/12/11 13:32:04;;;;;;;14.23;10.70;;;4.20;99.40;;;;;;6303427;28;20481;-63
2021/12/11 13:35:14;;;;;;;16.60;10.30;;;4.20;99.60;;;;;;6303057;28;20964;-65
2021/12/11 13:38:20;;;;;;;16.30;10.93;;;4.10;99.50;;;;;;6303431;28;20839;-64
2021/12/11 13:41:28;;;;;;;18.03;10.83;;;4.00;99.70;;;;;;6303580;28;20461;-64
2021/12/11 13:44:50;;;;;;;16.00;11.00;;;3.70;99.90;;;;;;6304661;28;20481;-64
2021/12/11 13:47:54;;;;;;;16.57;11.60;;;3.60;99.90;;;;;;6307108;28;20497;-67
2021/12/11 13:51:02;;;;;;;21.10;11.87;;;3.60;99.90;;;;;;6310178;28;20563;-65
2021/12/11 13:54:06;;;;;;;18.00;13.20;;;3.50;99.90;;;;;;6307291;28;20477;-65
2021/12/11 13:57:15;;;;;;;25.33;14.83;;;3.30;99.90;;;;;;6304863;28;20982;-64
2021/12/11 14:00:23;;;;;;;16.93;12.40;;;3.40;99.90;;;;;;6304859;28;20438;-65
2021/12/11 14:03:45;;;;;;;16.20;11.10;;;3.40;99.90;;;;;;6304079;28;20469;-64
2021/12/11 14:06:59;;;;;;;17.00;10.57;;;3.40;99.90;;;;;;6303486;28;20559;-64
2021/12/11 14:10:06;;;;;;;18.77;12.07;;;3.40;99.90;;;;;;6295898;28;20476;-66
2021/12/11 14:13:13;;;;;;;18.37;11.27;;;3.30;99.90;;;;;;6300193;28;20473;-65
2021/12/11 14:16:22;;;;;;;16.37;12.00;;;3.30;99.90;;;;;;6302646;28;20960;-65
2021/12/11 14:19:25;;;;;;;17.60;11.10;;;3.20;99.90;;;;;;6302961;28;20472;-64
2021/12/11 14:22:29;;;;;;;17.27;12.20;;;3.30;99.90;;;;;;6302914;28;20469;-65
2021/12/11 14:25:36;;;;;;;17.60;12.70;;;3.20;99.90;;;;;;6302864;28;20827;-63
2021/12/11 14:28:41;;;;;;;16.53;10.73;;;3.10;99.90;;;;;;6302084;28;20484;-66
2021/12/11 14:31:46;;;;;;;19.33;12.77;;;3.20;99.90;;;;;;6302321;28;20497;-65
2021/12/11 14:34:50;;;;;;;18.47;12.07;;;3.10;99.90;;;;;;6302081;28;20481;-66
2021/12/11 14:37:55;;;;;;;19.07;12.13;;;3.10;99.90;;;;;;6277279;28;20478;-68
2021/12/11 14:40:58;;;;;;;16.67;11.40;;;3.10;99.90;;;;;;6281039;28;20470;-66
2021/12/11 14:44:07;;;;;;;18.40;11.77;;;3.00;99.90;;;;;;6276887;28;20466;-66
2021/12/11 14:47:12;;;;;;;17.50;13.13;;;3.00;99.90;;;;;;6296253;28;20969;-66
2021/12/11 14:50:18;;;;;;;19.30;14.50;;;3.00;99.90;;;;;;6302284;28;20519;-66
2021/12/11 14:53:25;;;;;;;20.23;12.93;;;2.90;99.90;;;;;;6286685;28;20470;-66
2021/12/11 14:56:31;;;;;;;17.10;11.97;;;3.00;99.90;;;;;;6283566;28;20467;-65
2021/12/11 14:59:44;;;;;;;17.50;12.83;;;2.90;99.90;;;;;;6300724;28;20465;-66
2021/12/11 15:02:49;;;;;;;14.93;12.10;;;3.00;99.90;;;;;;6295632;28;20478;-66
2021/12/11 15:05:54;;;;;;;19.13;13.50;;;3.00;99.90;;;;;;6290697;28;20493;-66
2021/12/11 15:08:57;;;;;;;18.30;12.10;;;2.80;99.90;;;;;;6293393;28;20945;-66
2021/12/11 15:12:01;;;;;;;18.73;13.60;;;2.80;99.90;;;;;;6301405;28;20991;-67
2021/12/11 15:15:08;;;;;;;19.63;14.13;;;2.80;99.90;;;;;;6303265;28;20473;-66
2021/12/11 15:18:11;;;;;;;22.93;13.70;;;2.80;99.90;;;;;;6292297;28;20474;-66
2021/12/11 15:21:19;;;;;;;23.57;13.03;;;2.90;99.90;;;;;;6291613;28;20449;-66
2021/12/11 15:24:23;;;;;;;20.70;14.30;;;2.80;99.90;;;;;;6288303;28;20461;-66
2021/12/11 15:27:27;;;;;;;21.03;15.10;;;2.90;99.90;;;;;;6292092;28;20484;-67
2021/12/11 15:30:35;;;;;;;18.53;14.03;;;2.80;99.90;;;;;;6288225;28;20466;-65
2021/12/11 15:33:40;;;;;;;14.93;13.00;;;2.80;99.90;;;;;;6290348;28;20476;-66
2021/12/11 15:36:47;;;;;;;17.83;13.60;;;2.80;99.90;;;;;;6297777;28;20465;-64
2021/12/11 15:39:52;;;;;;;19.60;12.27;;;2.60;99.90;;;;;;6282887;28;20458;-65
2021/12/11 15:42:57;;;;;;;19.90;13.93;;;2.70;99.90;;;;;;6287662;28;20470;-64
2021/12/11 15:46:05;;;;;;;24.43;15.43;;;2.60;99.90;;;;;;6291176;28;20780;-65
2021/12/11 15:49:11;;;;;;;19.93;12.57;;;2.60;99.90;;;;;;6275841;28;20470;-65
2021/12/11 15:52:16;;;;;;;19.30;12.87;;;2.60;99.90;;;;;;6290226;28;20486;-65
2021/12/11 15:55:20;;;;;;;19.33;14.40;;;2.50;99.90;;;;;;6289582;28;20944;-64
2021/12/11 15:58:24;;;;;;;17.80;13.03;;;2.40;99.90;;;;;;6292016;28;20462;-65
2021/12/11 16:01:32;;;;;;;19.93;14.33;;;2.30;99.90;;;;;;6298580;28;20468;-65
2021/12/11 16:04:36;;;;;;;29.80;19.87;;;2.30;99.90;;;;;;6299359;28;20772;-66
2021/12/11 16:07:40;;;;;;;27.67;16.30;;;2.40;99.90;;;;;;6299047;28;20805;-66
2021/12/11 16:10:45;;;;;;;17.97;13.63;;;2.40;99.90;;;;;;6284165;28;20480;-66
2021/12/11 16:13:50;;;;;;;17.37;12.77;;;2.40;99.90;;;;;;6298418;28;20473;-66
2021/12/11 16:16:57;;;;;;;18.00;13.80;;;2.40;99.90;;;;;;6277779;28;20965;-65
2021/12/11 16:20:02;;;;;;;19.33;13.00;;;2.50;99.90;;;;;;6303129;28;20499;-65
2021/12/11 16:23:05;;;;;;;17.57;13.53;;;2.40;99.90;;;;;;6303965;28;20492;-65
2021/12/11 16:26:09;;;;;;;20.43;14.70;;;2.50;99.90;;;;;;6303361;28;20542;-65
2021/12/11 16:29:12;;;;;;;19.57;13.43;;;2.50;99.90;;;;;;6297094;28;20481;-62
2021/12/11 16:32:18;;;;;;;21.80;16.33;;;2.50;99.90;;;;;;6291099;28;20508;-62
2021/12/11 16:35:23;;;;;;;18.00;14.80;;;2.50;99.90;;;;;;6294944;28;20964;-63
2021/12/11 16:38:32;;;;;;;25.93;16.30;;;2.50;99.90;;;;;;6303307;28;20484;-64
2021/12/11 16:41:43;;;;;;;20.90;16.03;;;2.60;99.90;;;;;;6304184;28;20538;-63
2021/12/11 16:44:46;;;;;;;20.20;14.53;;;2.70;99.90;;;;;;6296434;28;20513;-63
2021/12/11 16:47:49;;;;;;;23.40;15.77;;;2.70;99.90;;;;;;6294723;28;20810;-61
2021/12/11 16:50:53;;;;;;;21.60;15.33;;;2.70;99.90;;;;;;6286188;28;20547;-61
2021/12/11 16:53:58;;;;;;;25.20;15.67;;;2.80;99.90;;;;;;6286234;28;20489;-61
2021/12/11 16:57:03;;;;;;;22.37;14.83;;;2.80;99.90;;;;;;6302911;28;20775;-64
2021/12/11 17:00:11;;;;;;;20.73;15.50;;;2.80;99.90;;;;;;6303908;28;20449;-64
2021/12/11 17:03:14;;;;;;;22.07;15.23;;;2.80;99.90;;;;;;6303054;28;20445;-64
2021/12/11 17:06:22;;;;;;;27.33;17.87;;;2.70;99.90;;;;;;6303186;28;20964;-64
2021/12/11 17:09:29;;;;;;;27.57;17.60;;;2.70;99.90;;;;;;6303370;28;20422;-64
2021/12/11 17:12:33;;;;;;;17.80;12.90;;;2.70;99.90;;;;;;6293212;28;20457;-61
2021/12/11 17:15:36;;;;;;;20.17;14.43;;;2.70;99.90;;;;;;6288391;28;20512;-60
2021/12/11 17:18:41;;;;;;;25.00;16.30;;;2.70;99.90;;;;;;6279133;28;20466;-63
2021/12/11 17:21:45;;;;;;;24.83;16.93;;;2.70;99.90;;;;;;6292475;28;20461;-63
2021/12/11 17:24:50;;;;;;;22.83;16.07;;;2.70;99.90;;;;;;6302047;28;20484;-63
2021/12/11 17:27:55;;;;;;;20.57;14.63;;;2.70;99.90;;;;;;6303400;28;20484;-64
2021/12/11 17:30:58;;;;;;;18.10;14.70;;;2.70;99.90;;;;;;6301771;28;20991;-63
2021/12/11 17:34:03;;;;;;;18.87;15.23;;;2.70;99.90;;;;;;6299688;28;21167;-62
2021/12/11 17:37:06;;;;;;;25.80;15.97;;;2.60;99.90;;;;;;6297298;28;20477;-64
2021/12/11 17:40:13;;;;;;;24.40;14.90;;;2.50;99.90;;;;;;6297735;28;20818;-65
2021/12/11 17:43:16;;;;;;;17.33;13.77;;;2.60;99.90;;;;;;6291680;28;20465;-63
2021/12/11 17:46:24;;;;;;;23.37;14.67;;;2.50;99.90;;;;;;6302042;28;20477;-62